createdAt,value
2023-02-14T00:01:15.344Z,3.59
2023-02-14T00:03:42.264Z,3.60
2023-02-14T00:06:15.131Z,3.63
2023-02-14T00:08:44.742Z,3.60
2023-02-14T00:11:13.524Z,3.61
2023-02-14T00:14:00.582Z,3.60
2023-02-14T00:16:27.525Z,3.62
2023-02-14T00:19:03.259Z,3.59
2023-02-14T00:21:37.912Z,3.61
2023-02-14T00:24:17.638Z,3.58
2023-02-14T00:26:45.211Z,3.60
2023-02-14T00:29:16.368Z,3.60
2023-02-14T00:31:43.719Z,3.58
2023-02-14T00:34:11.670Z,3.54
2023-02-14T00:36:39.133Z,3.48
2023-02-14T00:39:08.658Z,3.43
2023-02-14T00:41:38.113Z,3.39
2023-02-14T00:44:05.969Z,3.33
2023-02-14T00:46:33.718Z,3.34
2023-02-14T00:49:01.641Z,3.29
2023-02-14T00:51:28.925Z,3.26
2023-02-14T00:53:55.892Z,3.23
2023-02-14T00:56:23.064Z,3.20
2023-02-14T00:58:50.043Z,3.18
2023-02-14T01:01:19.028Z,3.14
2023-02-14T01:03:45.991Z,3.17
2023-02-14T01:06:13.177Z,3.17
2023-02-14T01:08:40.100Z,3.13
2023-02-14T01:11:16.773Z,3.04
2023-02-14T01:13:44.779Z,3.00
2023-02-14T01:16:15.699Z,2.99
2023-02-14T01:18:43.907Z,2.99
2023-02-14T01:21:24.337Z,2.99
2023-02-14T01:23:57.033Z,2.99
2023-02-14T01:26:25.694Z,3.00
2023-02-14T01:28:52.737Z,2.98
2023-02-14T01:31:26.709Z,3.01
2023-02-14T01:33:54.795Z,3.04
2023-02-14T01:36:28.602Z,3.02
2023-02-14T01:39:02.575Z,3.05
2023-02-14T01:41:32.981Z,3.03
2023-02-14T01:44:05.752Z,3.00
2023-02-14T01:46:38.051Z,2.93
2023-02-14T01:49:28.873Z,2.86
2023-02-14T01:52:17.301Z,2.83
2023-02-14T01:55:00.432Z,2.82
2023-02-14T01:57:36.029Z,2.77
2023-02-14T02:00:24.424Z,2.78
2023-02-14T02:02:51.798Z,2.75
2023-02-14T02:05:23.641Z,2.73
2023-02-14T02:07:57.529Z,2.68
2023-02-14T02:10:28.820Z,2.64
2023-02-14T02:12:56.411Z,2.63
2023-02-14T02:15:27.353Z,2.61
2023-02-14T02:18:09.024Z,2.53
2023-02-14T02:21:18.406Z,2.56
2023-02-14T02:24:14.146Z,2.50
2023-02-14T02:26:55.181Z,2.46
2023-02-14T02:30:15.091Z,2.35
2023-02-14T02:33:13.494Z,2.36
2023-02-14T02:36:15.440Z,2.34
2023-02-14T02:39:34.525Z,2.31
2023-02-14T02:42:07.382Z,2.29
2023-02-14T02:45:09.101Z,2.21
2023-02-14T02:48:09.772Z,2.28
2023-02-14T02:51:02.636Z,2.26
2023-02-14T02:53:48.360Z,2.23
2023-02-14T02:56:41.951Z,2.26
2023-02-14T02:59:32.991Z,2.25
2023-02-14T03:02:18.705Z,2.26
2023-02-14T03:04:54.382Z,2.26
2023-02-14T03:07:36.328Z,2.27
2023-02-14T03:10:24.143Z,2.28
2023-02-14T03:13:26.547Z,2.27
2023-02-14T03:16:30.593Z,2.24
2023-02-14T03:19:40.179Z,2.19
2023-02-14T03:22:25.959Z,2.17
2023-02-14T03:25:05.201Z,2.11
2023-02-14T03:27:39.628Z,2.06
2023-02-14T03:30:31.356Z,2.01
2023-02-14T03:33:06.497Z,1.96
2023-02-14T03:35:51.803Z,1.95
2023-02-14T03:38:33.293Z,1.95
2023-02-14T03:41:07.254Z,1.90
2023-02-14T03:43:44.400Z,1.89
2023-02-14T03:46:18.318Z,1.89
2023-02-14T03:48:47.388Z,1.93
2023-02-14T03:51:16.172Z,1.96
2023-02-14T03:53:51.796Z,1.99
2023-02-14T03:56:32.702Z,1.99
2023-02-14T03:59:09.337Z,1.95
2023-02-14T04:02:03.289Z,1.90
2023-02-14T04:04:35.964Z,1.86
2023-02-14T04:07:22.322Z,1.81
2023-02-14T04:09:50.083Z,1.71
2023-02-14T04:12:26.575Z,1.74
2023-02-14T04:14:59.469Z,1.71
2023-02-14T04:17:45.263Z,1.68
2023-02-14T04:20:12.271Z,1.68
2023-02-14T04:22:39.288Z,1.68
2023-02-14T04:25:06.241Z,1.67
2023-02-14T04:27:33.154Z,1.63
2023-02-14T04:30:00.129Z,1.54
2023-02-14T04:32:27.218Z,1.52
2023-02-14T04:34:54.185Z,1.46
2023-02-14T04:37:21.188Z,1.43
2023-02-14T04:39:48.281Z,1.36
2023-02-14T04:42:15.480Z,1.37
2023-02-14T04:44:42.453Z,1.40
2023-02-14T04:47:09.621Z,1.41
2023-02-14T04:49:36.784Z,1.36
2023-02-14T04:52:04.921Z,1.29
2023-02-14T04:54:32.736Z,1.29
2023-02-14T04:56:59.869Z,1.27
2023-02-14T04:59:27.061Z,1.26
2023-02-14T05:01:54.204Z,1.25
2023-02-14T05:04:21.626Z,1.24
2023-02-14T05:06:48.764Z,1.20
2023-02-14T05:09:15.760Z,1.24
2023-02-14T05:11:42.798Z,1.20
2023-02-14T05:14:10.017Z,1.20
2023-02-14T05:16:38.325Z,1.19
2023-02-14T05:19:05.465Z,1.16
2023-02-14T05:21:33.172Z,1.17
2023-02-14T05:24:01.155Z,1.18
2023-02-14T05:26:28.395Z,1.16
2023-02-14T05:28:55.550Z,1.19
2023-02-14T05:31:23.134Z,1.21
2023-02-14T05:33:50.167Z,1.20
2023-02-14T05:36:17.179Z,1.19
2023-02-14T05:38:44.100Z,1.19
2023-02-14T05:41:11.089Z,1.16
2023-02-14T05:43:38.045Z,1.19
2023-02-14T05:46:05.188Z,1.15
2023-02-14T05:48:32.520Z,1.18
2023-02-14T05:51:07.826Z,1.15
2023-02-14T05:53:35.165Z,1.09
2023-02-14T05:56:02.137Z,1.12
2023-02-14T05:58:29.078Z,1.09
2023-02-14T06:01:00.338Z,1.02
2023-02-14T06:03:27.694Z,0.98
2023-02-14T06:05:54.670Z,0.92
2023-02-14T06:08:21.670Z,0.88
2023-02-14T06:10:48.610Z,0.85
2023-02-14T06:13:15.693Z,0.84
2023-02-14T06:15:42.820Z,0.86
2023-02-14T06:18:09.734Z,0.86
2023-02-14T06:20:36.844Z,0.83
2023-02-14T06:23:03.775Z,0.85
2023-02-14T06:25:30.802Z,0.84
2023-02-14T06:27:58.951Z,0.85
2023-02-14T06:30:27.094Z,0.85
2023-02-14T06:32:54.290Z,0.84
2023-02-14T06:35:21.289Z,0.82
2023-02-14T06:37:48.615Z,0.80
2023-02-14T06:40:16.067Z,0.79
2023-02-14T06:42:43.232Z,0.79
2023-02-14T06:45:10.415Z,0.81
2023-02-14T06:47:37.747Z,0.80
2023-02-14T06:50:05.668Z,0.79
2023-02-14T06:52:33.759Z,0.77
2023-02-14T06:55:00.715Z,0.78
2023-02-14T06:57:27.778Z,0.77
2023-02-14T06:59:54.985Z,0.73
2023-02-14T07:02:24.773Z,0.75
2023-02-14T07:04:52.139Z,0.74
2023-02-14T07:07:19.097Z,0.70
2023-02-14T07:09:46.128Z,0.73
2023-02-14T07:12:13.208Z,0.74
2023-02-14T07:14:40.372Z,0.78
2023-02-14T07:17:07.266Z,0.82
2023-02-14T07:19:34.192Z,0.87
2023-02-14T07:22:01.271Z,1.25
2023-02-14T07:24:28.261Z,1.96
2023-02-14T07:26:55.230Z,2.85
2023-02-14T07:29:22.123Z,3.55
2023-02-14T07:31:49.263Z,3.89
2023-02-14T07:34:16.413Z,4.24
2023-02-14T07:36:44.153Z,4.69
2023-02-14T07:39:11.170Z,5.16
2023-02-14T07:41:38.432Z,5.58
2023-02-14T07:44:09.827Z,5.90
2023-02-14T07:46:36.755Z,6.15
2023-02-14T07:49:03.989Z,6.34
2023-02-14T07:51:31.192Z,6.54
2023-02-14T07:53:58.232Z,6.77
2023-02-14T07:56:25.204Z,6.93
2023-02-14T07:58:52.248Z,7.04
2023-02-14T08:01:19.617Z,6.96
2023-02-14T08:03:49.588Z,6.87
2023-02-14T08:06:19.070Z,6.80
2023-02-14T08:08:46.740Z,6.57
2023-02-14T08:11:34.397Z,6.16
2023-02-14T08:14:01.375Z,5.82
2023-02-14T08:16:28.382Z,5.63
2023-02-14T08:18:55.707Z,5.44
2023-02-14T08:21:24.212Z,5.24
2023-02-14T08:23:51.123Z,5.15
2023-02-14T08:26:18.325Z,5.08
2023-02-14T08:28:45.452Z,5.09
2023-02-14T08:31:12.963Z,5.16
2023-02-14T08:33:40.021Z,5.24
2023-02-14T08:36:07.024Z,5.29
2023-02-14T08:38:33.940Z,5.35
2023-02-14T08:41:03.893Z,5.39
2023-02-14T08:43:34.372Z,5.49
2023-02-14T08:46:01.908Z,5.61
2023-02-14T08:48:29.259Z,5.74
2023-02-14T08:50:56.224Z,5.86
2023-02-14T08:53:23.206Z,6.06
2023-02-14T08:55:50.167Z,6.27
2023-02-14T08:58:17.140Z,6.51
2023-02-14T09:00:44.153Z,6.69
2023-02-14T09:03:11.190Z,6.88
2023-02-14T09:05:38.370Z,7.11
2023-02-14T09:08:05.360Z,7.31
2023-02-14T09:10:32.338Z,7.58
2023-02-14T09:12:59.264Z,7.85
2023-02-14T09:15:26.226Z,8.00
2023-02-14T09:17:53.297Z,8.16
2023-02-14T09:20:20.534Z,8.26
2023-02-14T09:22:48.815Z,8.43
2023-02-14T09:25:16.645Z,8.68
2023-02-14T09:27:43.564Z,8.97
2023-02-14T09:30:11.400Z,9.06
2023-02-14T09:32:38.502Z,9.33
2023-02-14T09:35:06.879Z,9.58
2023-02-14T09:37:33.818Z,9.86
2023-02-14T09:40:00.790Z,10.06
2023-02-14T09:42:46.252Z,10.26
2023-02-14T09:45:17.365Z,10.56
2023-02-14T09:48:23.570Z,10.88
2023-02-14T09:50:57.150Z,11.28
2023-02-14T09:53:35.694Z,11.64
2023-02-14T09:56:05.852Z,11.83
2023-02-14T09:59:19.859Z,12.00
2023-02-14T10:01:54.545Z,12.18
2023-02-14T10:04:34.557Z,12.41
2023-02-14T10:07:06.075Z,12.59
2023-02-14T10:10:00.694Z,12.72
2023-02-14T10:12:45.952Z,12.67
2023-02-14T10:15:20.785Z,12.80
2023-02-14T10:18:27.783Z,13.02
2023-02-14T10:21:02.811Z,13.19
2023-02-14T10:23:36.097Z,13.37
2023-02-14T10:26:14.748Z,13.55
2023-02-14T10:28:50.041Z,13.71
2023-02-14T10:31:27.190Z,13.85
2023-02-14T10:34:15.305Z,14.08
2023-02-14T10:37:05.510Z,14.23
2023-02-14T10:40:10.521Z,14.36
2023-02-14T10:43:40.447Z,14.61
2023-02-14T10:46:38.751Z,14.80
2023-02-14T10:49:38.151Z,14.81
2023-02-14T10:52:43.283Z,14.88
2023-02-14T10:55:40.126Z,14.95
2023-02-14T10:58:12.420Z,15.04
2023-02-14T11:01:07.152Z,15.20
2023-02-14T11:03:37.182Z,15.33
2023-02-14T11:06:04.387Z,15.54
2023-02-14T11:08:38.273Z,15.83
2023-02-14T11:11:24.354Z,16.09
2023-02-14T11:13:51.765Z,16.20
2023-02-14T11:16:35.847Z,16.30
2023-02-14T11:19:25.476Z,16.26
2023-02-14T11:21:55.321Z,16.28
2023-02-14T11:24:33.808Z,16.47
2023-02-14T11:27:27.228Z,16.75
2023-02-14T11:29:54.454Z,16.98
2023-02-14T11:32:28.577Z,16.81
2023-02-14T11:35:18.943Z,16.76
2023-02-14T11:37:54.814Z,16.94
2023-02-14T11:40:34.954Z,17.09
2023-02-14T11:43:20.393Z,17.13
2023-02-14T11:45:49.343Z,17.21
2023-02-14T11:48:38.430Z,17.36
2023-02-14T11:51:16.393Z,17.69
2023-02-14T11:53:49.449Z,17.99
2023-02-14T11:56:18.706Z,18.11
2023-02-14T11:58:58.074Z,18.23
2023-02-14T12:01:29.378Z,18.30
2023-02-14T12:04:00.185Z,18.26
2023-02-14T12:06:30.872Z,18.37
2023-02-14T12:09:22.588Z,18.58
2023-02-14T12:12:04.424Z,18.68
2023-02-14T12:14:35.506Z,18.80
2023-02-14T12:17:11.337Z,18.69
2023-02-14T12:19:43.927Z,18.54
2023-02-14T12:22:18.917Z,18.58
2023-02-14T12:24:59.282Z,18.83
2023-02-14T12:27:38.046Z,19.01
2023-02-14T12:30:32.563Z,19.14
2023-02-14T12:33:00.374Z,19.25
2023-02-14T12:35:48.197Z,19.32
2023-02-14T12:38:42.561Z,19.46
2023-02-14T12:41:49.804Z,19.68
2023-02-14T12:44:52.717Z,19.64
2023-02-14T12:47:29.812Z,19.71
2023-02-14T12:50:09.907Z,19.75
2023-02-14T12:53:14.528Z,19.83
2023-02-14T12:55:48.356Z,19.92
2023-02-14T12:58:53.536Z,20.04
2023-02-14T13:01:52.435Z,20.02
2023-02-14T13:04:53.148Z,19.91
2023-02-14T13:07:37.688Z,19.85
2023-02-14T13:10:41.817Z,19.93
2023-02-14T13:13:41.003Z,19.94
2023-02-14T13:16:25.616Z,20.07
2023-02-14T13:19:32.084Z,20.05
2023-02-14T13:22:01.394Z,19.87
2023-02-14T13:24:41.317Z,19.61
2023-02-14T13:27:18.421Z,19.38
2023-02-14T13:29:56.562Z,19.36
2023-02-14T13:32:32.130Z,19.44
2023-02-14T13:34:59.613Z,19.53
2023-02-14T13:37:27.447Z,19.68
2023-02-14T13:39:58.430Z,19.82
2023-02-14T13:42:47.608Z,19.92
2023-02-14T13:45:29.749Z,20.00
2023-02-14T13:48:12.750Z,20.04
2023-02-14T13:51:04.813Z,20.17
2023-02-14T13:53:40.749Z,20.34
2023-02-14T13:56:15.310Z,20.41
2023-02-14T13:59:00.583Z,20.29
2023-02-14T14:01:39.120Z,20.19
2023-02-14T14:04:29.028Z,20.32
2023-02-14T14:07:18.364Z,20.42
2023-02-14T14:09:45.544Z,20.50
2023-02-14T14:12:27.915Z,20.54
2023-02-14T14:15:07.220Z,20.43
2023-02-14T14:18:09.581Z,20.34
2023-02-14T14:20:47.910Z,20.23
2023-02-14T14:24:13.749Z,20.09
2023-02-14T14:26:44.859Z,19.95
2023-02-14T14:29:24.837Z,19.92
2023-02-14T14:31:55.770Z,19.98
2023-02-14T14:34:26.595Z,19.86
2023-02-14T14:37:19.267Z,19.43
2023-02-14T14:39:56.050Z,18.96
2023-02-14T14:42:28.137Z,18.67
2023-02-14T14:45:06.159Z,18.39
2023-02-14T14:47:42.528Z,18.31
2023-02-14T14:50:17.794Z,18.30
2023-02-14T14:52:51.687Z,18.20
2023-02-14T14:55:25.533Z,18.11
2023-02-14T14:57:56.968Z,18.08
2023-02-14T15:00:30.618Z,18.15
2023-02-14T15:03:12.372Z,18.09
2023-02-14T15:05:46.229Z,17.96
2023-02-14T15:08:25.283Z,17.87
2023-02-14T15:11:11.042Z,17.73
2023-02-14T15:13:50.506Z,17.56
2023-02-14T15:16:37.710Z,17.49
2023-02-14T15:19:17.734Z,17.49
2023-02-14T15:21:46.178Z,17.40
2023-02-14T15:24:18.586Z,17.09
2023-02-14T15:26:48.073Z,16.90
2023-02-14T15:29:28.863Z,16.71
2023-02-14T15:32:02.433Z,16.51
2023-02-14T15:34:37.869Z,16.28
2023-02-14T15:37:06.697Z,16.08
2023-02-14T15:39:43.347Z,15.93
2023-02-14T15:42:33.938Z,15.86
2023-02-14T15:45:27.924Z,15.85
2023-02-14T15:47:59.453Z,15.87
2023-02-14T15:50:36.073Z,15.86
2023-02-14T15:53:44.710Z,15.89
2023-02-14T15:56:34.662Z,15.89
2023-02-14T15:59:07.936Z,15.98
2023-02-14T16:01:36.705Z,16.12
2023-02-14T16:04:07.004Z,16.40
2023-02-14T16:06:44.621Z,16.73
2023-02-14T16:09:28.460Z,17.02
2023-02-14T16:11:55.520Z,17.19
2023-02-14T16:14:36.660Z,17.18
2023-02-14T16:17:12.486Z,17.03
2023-02-14T16:19:43.091Z,16.75
2023-02-14T16:22:13.398Z,16.41
2023-02-14T16:24:41.980Z,16.12
2023-02-14T16:27:09.145Z,15.86
2023-02-14T16:29:36.762Z,15.57
2023-02-14T16:32:19.784Z,15.33
2023-02-14T16:34:47.551Z,15.11
2023-02-14T16:37:25.840Z,14.86
2023-02-14T16:39:56.490Z,14.66
2023-02-14T16:42:24.253Z,14.49
2023-02-14T16:44:51.397Z,14.29
2023-02-14T16:47:21.000Z,14.12
2023-02-14T16:49:48.610Z,13.94
2023-02-14T16:52:25.727Z,13.80
2023-02-14T16:54:53.494Z,13.61
2023-02-14T16:57:29.474Z,13.54
2023-02-14T16:59:57.188Z,13.51
2023-02-14T17:02:28.196Z,13.47
2023-02-14T17:04:55.341Z,13.34
2023-02-14T17:07:22.597Z,13.28
2023-02-14T17:09:55.553Z,13.17
2023-02-14T17:12:29.209Z,12.98
2023-02-14T17:15:01.750Z,12.70
2023-02-14T17:17:30.090Z,12.39
2023-02-14T17:19:58.357Z,12.23
2023-02-14T17:22:25.203Z,11.98
2023-02-14T17:24:52.088Z,11.83
2023-02-14T17:27:18.981Z,11.75
2023-02-14T17:29:45.986Z,11.69
2023-02-14T17:32:14.058Z,11.56
2023-02-14T17:34:41.181Z,11.47
2023-02-14T17:37:08.189Z,11.36
2023-02-14T17:39:35.107Z,11.28
2023-02-14T17:42:02.067Z,11.26
2023-02-14T17:44:32.403Z,11.18
2023-02-14T17:46:59.407Z,11.16
2023-02-14T17:49:26.726Z,11.10
2023-02-14T17:51:53.724Z,10.99
2023-02-14T17:54:20.670Z,10.85
2023-02-14T17:56:47.599Z,10.77
2023-02-14T17:59:14.511Z,10.78
2023-02-14T18:01:41.708Z,10.74
2023-02-14T18:04:08.674Z,10.69
2023-02-14T18:06:36.200Z,10.65
2023-02-14T18:09:06.146Z,10.63
2023-02-14T18:11:33.080Z,10.41
2023-02-14T18:14:01.560Z,10.28
2023-02-14T18:16:28.506Z,10.17
2023-02-14T18:18:55.976Z,10.03
2023-02-14T18:21:24.553Z,9.90
2023-02-14T18:23:52.192Z,9.84
2023-02-14T18:26:19.470Z,9.74
2023-02-14T18:28:46.537Z,9.67
2023-02-14T18:31:17.969Z,9.58
2023-02-14T18:33:47.221Z,9.53
2023-02-14T18:36:19.141Z,9.50
2023-02-14T18:38:48.645Z,9.53
2023-02-14T18:46:29.847Z,12.60
2023-02-14T18:48:57.845Z,12.62
2023-02-14T18:51:28.843Z,12.27
2023-02-14T18:53:57.993Z,11.84
2023-02-14T18:56:28.923Z,11.51
2023-02-14T18:59:03.273Z,11.15
2023-02-14T19:01:36.681Z,10.81
2023-02-14T19:04:06.799Z,10.52
2023-02-14T19:06:34.831Z,10.32
2023-02-14T19:09:03.128Z,10.11
2023-02-14T19:11:32.621Z,9.99
2023-02-14T19:14:01.770Z,9.89
2023-02-14T19:16:33.099Z,9.82
2023-02-14T19:19:02.404Z,9.63
2023-02-14T19:21:33.670Z,9.46
2023-02-14T19:24:02.404Z,9.26
2023-02-14T19:26:37.039Z,9.04
2023-02-14T19:29:10.836Z,8.86
2023-02-14T19:31:41.085Z,8.72
2023-02-14T19:34:13.861Z,8.60
2023-02-14T19:36:40.787Z,8.44
2023-02-14T19:39:07.718Z,8.31
2023-02-14T19:41:35.240Z,8.30
2023-02-14T19:44:04.937Z,8.37
2023-02-14T19:46:33.139Z,8.37
2023-02-14T19:49:01.039Z,8.46
2023-02-14T19:51:35.152Z,8.43
2023-02-14T19:54:09.748Z,8.41
2023-02-14T19:56:40.678Z,8.45
2023-02-14T19:59:09.257Z,8.44
2023-02-14T20:01:49.400Z,8.40
2023-02-14T20:04:26.565Z,8.40
2023-02-14T20:06:55.046Z,8.38
2023-02-14T20:09:23.071Z,8.32
2023-02-14T20:11:54.558Z,8.27
2023-02-14T20:14:50.332Z,8.16
2023-02-14T20:17:19.278Z,8.19
2023-02-14T20:19:46.566Z,8.16
2023-02-14T20:22:13.572Z,8.14
2023-02-14T20:24:40.564Z,8.07
2023-02-14T20:27:08.112Z,8.01
2023-02-14T20:29:35.742Z,7.94
2023-02-14T20:32:04.908Z,7.91
2023-02-14T20:34:31.929Z,7.88
2023-02-14T20:36:59.206Z,7.88
2023-02-14T20:39:34.209Z,7.74
2023-02-14T20:42:01.877Z,7.67
2023-02-14T20:44:28.975Z,7.63
2023-02-14T20:46:56.986Z,7.56
2023-02-14T20:49:27.102Z,7.52
2023-02-14T20:51:54.449Z,7.47
2023-02-14T20:54:24.041Z,7.42
2023-02-14T20:56:51.461Z,7.34
2023-02-14T20:59:24.299Z,7.24
2023-02-14T21:01:51.533Z,7.12
2023-02-14T21:04:18.692Z,6.96
2023-02-14T21:06:47.608Z,6.84
2023-02-14T21:09:15.039Z,6.74
2023-02-14T21:11:43.030Z,6.61
2023-02-14T21:14:10.491Z,6.45
2023-02-14T21:16:37.793Z,6.34
2023-02-14T21:19:05.736Z,6.24
2023-02-14T21:21:37.674Z,6.27
2023-02-14T21:24:11.703Z,6.01
2023-02-14T21:26:39.293Z,5.93
2023-02-14T21:29:06.427Z,5.93
2023-02-14T21:31:34.176Z,5.99
2023-02-14T21:34:03.120Z,5.99
2023-02-14T21:36:32.937Z,5.91
2023-02-14T21:39:00.264Z,6.00
2023-02-14T21:41:29.544Z,5.86
2023-02-14T21:43:59.052Z,5.90
2023-02-14T21:46:31.281Z,5.86
2023-02-14T21:49:18.904Z,5.73
2023-02-14T21:51:47.082Z,5.77
2023-02-14T21:54:15.171Z,5.79
2023-02-14T21:56:42.480Z,5.73
2023-02-14T21:59:09.996Z,5.63
2023-02-14T22:01:39.560Z,5.63
2023-02-14T22:04:10.040Z,5.59
2023-02-14T22:06:40.022Z,5.50
2023-02-14T22:09:07.719Z,5.50
2023-02-14T22:11:35.421Z,5.58
2023-02-14T22:14:02.380Z,5.56
2023-02-14T22:16:29.336Z,5.54
2023-02-14T22:18:56.226Z,5.51
2023-02-14T22:21:26.468Z,5.47
2023-02-14T22:23:55.027Z,5.42
2023-02-14T22:26:29.085Z,5.45
2023-02-14T22:29:00.763Z,5.44
2023-02-14T22:31:32.874Z,5.42
2023-02-14T22:33:59.892Z,5.15
2023-02-14T22:36:26.787Z,5.05
2023-02-14T22:38:53.670Z,5.02
2023-02-14T22:41:24.076Z,4.99
2023-02-14T22:43:54.624Z,4.95
2023-02-14T22:46:25.118Z,4.89
2023-02-14T22:48:52.917Z,4.91
2023-02-14T22:51:37.595Z,4.82
2023-02-14T22:54:09.274Z,4.73
2023-02-14T22:56:40.046Z,4.70
2023-02-14T22:59:19.315Z,4.69
2023-02-14T23:01:46.618Z,4.59
2023-02-14T23:04:15.693Z,4.62
2023-02-14T23:06:42.985Z,4.63
2023-02-14T23:09:11.992Z,4.64
2023-02-14T23:11:41.576Z,4.72
2023-02-14T23:14:30.957Z,4.69
2023-02-14T23:17:16.679Z,4.55
2023-02-14T23:20:03.575Z,4.47
2023-02-14T23:22:37.693Z,4.48
2023-02-14T23:25:09.444Z,4.60
2023-02-14T23:27:49.600Z,4.55
2023-02-14T23:30:19.823Z,4.45
2023-02-14T23:32:46.800Z,4.52
2023-02-14T23:35:13.928Z,4.50
2023-02-14T23:37:41.655Z,4.38
2023-02-14T23:40:09.892Z,4.44
2023-02-14T23:42:36.804Z,4.32
2023-02-14T23:45:22.563Z,4.30
2023-02-14T23:47:49.926Z,4.35
2023-02-14T23:50:16.818Z,4.22
2023-02-14T23:52:44.587Z,4.27
2023-02-14T23:55:11.922Z,4.22
2023-02-14T23:57:39.467Z,4.30
